ADDS METAR Data

Data at: 1505 UTC 19 Aug 2017

METAR for:EGLF (Farnborough Arpt, --, UK)
Text:EGLF 191450Z 27018G36KT 240V300 9999 FEW044 19/06 Q1019
Temperature: 19.0°C ( 66°F)
Dewpoint: 6.0°C ( 43°F) [RH = 43%]
Pressure (altimeter):30.09 inches Hg (1019.0 mb)
Winds:from the W (270 degrees) at 21 MPH (18 knots; 9.3 m/s) gusting to 41 MPH (36 knots; 18.5 m/s)
Visibility:6 or more sm (10+ km)
Ceiling:at least 12,000 feet AGL
Clouds: few clouds at 4400 feet AGL

TAF for:EGLF (Farnborough Arpt, --, UK) issued at 1456 UTC 19 Aug 2017
Text:TAF AMD EGLF 191456Z 1915/1919 26014KT 9999 SCT025
Forecast period:1500 to 1900 UTC 19 August 2017
Forecast type:FROM: standard forecast or significant change
Winds:from the W (260 degrees) at 16 MPH (14 knots; 7.2 m/s)
Visibility:6 or more sm (10+ km)
Ceiling:at least 12,000 feet AGL
Clouds: scattered clouds at 2500 feet AGL
Text:TEMPO 1915/1919 27020G35KT
Forecast period:1500 to 1900 UTC 19 August 2017
Forecast type:TEMPORARY: The following changes expected for less than half the time period
Winds:from the W (270 degrees) at 23 MPH (20 knots; 10.3 m/s) gusting to 40 MPH (35 knots; 18.0 m/s)
Clouds:missing
Text:PROB30
Forecast period:1500 to 1900 UTC 19 August 2017
Forecast type:TEMPORARY: The following changes expected for less than half the time period
Visibility: 6 sm ( 9 km)
Clouds:missing
Weather:-SHRA (light rain showers)

METAR for:EGUB (Benson(RAF), --, UK)
Text:EGUB 191350Z AUTO 27014KT 9999 // BKN050/// 18/08 Q1018
Temperature: 18.0°C ( 64°F)
Dewpoint: 8.0°C ( 46°F) [RH = 52%]
Pressure (altimeter):30.06 inches Hg (1018.0 mb)
Winds:from the W (270 degrees) at 16 MPH (14 knots; 7.2 m/s)
Visibility:6 or more sm (10+ km)
Ceiling:5000 feet AGL
Clouds: broken clouds at 5000 feet AGL

TAF for:EGUB (Benson(RAF), --, UK)
Text:No data found

METAR for:EGVO (Odiham(RAF), --, UK)
Text:EGVO 191450Z 27019KT 9999 FEW045 19/04 Q1019 BLU
Temperature: 19.0°C ( 66°F)
Dewpoint: 4.0°C ( 39°F) [RH = 37%]
Pressure (altimeter):30.09 inches Hg (1019.0 mb)
Winds:from the W (270 degrees) at 22 MPH (19 knots; 9.8 m/s)
Visibility:6 or more sm (10+ km)
Ceiling:at least 12,000 feet AGL
Clouds: few clouds at 4500 feet AGL

TAF for:EGVO (Odiham(RAF), --, UK)
Text:No data found

METAR for:EGTK (Oxford Arpt, --, UK)
Text:EGTK 191450Z 25016KT 9999 SCT040 19/09 Q1017
Temperature: 19.0°C ( 66°F)
Dewpoint: 9.0°C ( 48°F) [RH = 52%]
Pressure (altimeter):30.03 inches Hg (1017.0 mb)
Winds:from the WSW (250 degrees) at 18 MPH (16 knots; 8.2 m/s)
Visibility:6 or more sm (10+ km)
Ceiling:at least 12,000 feet AGL
Clouds: scattered clouds at 4000 feet AGL

TAF for:EGTK (Oxford Arpt, --, UK) issued at 1402 UTC 19 Aug 2017
Text:TAF EGTK 191402Z 1915/1922 26012KT 9999 SCT030
Forecast period:1500 to 2200 UTC 19 August 2017
Forecast type:FROM: standard forecast or significant change
Winds:from the W (260 degrees) at 14 MPH (12 knots; 6.2 m/s)
Visibility:6 or more sm (10+ km)
Ceiling:at least 12,000 feet AGL
Clouds: scattered clouds at 3000 feet AGL
Text:TEMPO 1915/1917 27015G25KT
Forecast period:1500 to 1700 UTC 19 August 2017
Forecast type:TEMPORARY: The following changes expected for less than half the time period
Winds:from the W (270 degrees) at 17 MPH (15 knots; 7.7 m/s) gusting to 29 MPH (25 knots; 12.9 m/s)
Clouds:missing

METAR for:EGHH (Bournemouth Intl, --, UK)
Text:EGHH 191450Z 29015KT 9999 SCT048 19/08 Q1020
Temperature: 19.0°C ( 66°F)
Dewpoint: 8.0°C ( 46°F) [RH = 49%]
Pressure (altimeter):30.12 inches Hg (1020.0 mb)
Winds:from the WNW (290 degrees) at 17 MPH (15 knots; 7.7 m/s)
Visibility:6 or more sm (10+ km)
Ceiling:at least 12,000 feet AGL
Clouds: scattered clouds at 4800 feet AGL

TAF for:EGHH (Bournemouth Intl, --, UK) issued at 1402 UTC 19 Aug 2017
Text:TAF EGHH 191402Z 1915/1924 26012KT 9999 SCT035
Forecast period:1500 to 2100 UTC 19 August 2017
Forecast type:FROM: standard forecast or significant change
Winds:from the W (260 degrees) at 14 MPH (12 knots; 6.2 m/s)
Visibility:6 or more sm (10+ km)
Ceiling:at least 12,000 feet AGL
Clouds: scattered clouds at 3500 feet AGL
Text:TEMPO 1915/1917 28015G25KT
Forecast period:1500 to 1700 UTC 19 August 2017
Forecast type:TEMPORARY: The following changes expected for less than half the time period
Winds:from the W (280 degrees) at 17 MPH (15 knots; 7.7 m/s) gusting to 29 MPH (25 knots; 12.9 m/s)
Clouds:missing
Text:BECMG 1921/1924 VRB04KT
Forecast period:2100 UTC 19 August 2017 to 0000 UTC 20 August 2017
Forecast type:BECOMING: Conditions expected to become as follows by 0000 UTC 20 August 2017
Winds:variable direction winds at 5 MPH (4 knots; 2.1 m/s)
Visibility:6 or more sm (10+ km)
Ceiling:at least 12,000 feet AGL
Clouds: scattered clouds at 3500 feet AGL

METAR for:
Text:No data found

TAF for:
Text:No data found